sensor_id;sensor_type;location;lat;lon;timestamp;P1;durP1;ratioP1;P2;durP2;ratioP2
19679;SDS011;9989;48.962;9.182;2023-06-14T00:01:46;9.40;;;5.60;;
19679;SDS011;9989;48.962;9.182;2023-06-14T00:04:12;8.17;;;5.00;;
19679;SDS011;9989;48.962;9.182;2023-06-14T00:06:38;13.57;;;5.90;;
19679;SDS011;9989;48.962;9.182;2023-06-14T00:09:04;18.50;;;6.73;;
19679;SDS011;9989;48.962;9.182;2023-06-14T00:11:30;9.23;;;6.30;;
19679;SDS011;9989;48.962;9.182;2023-06-14T00:13:57;11.87;;;6.07;;
19679;SDS011;9989;48.962;9.182;2023-06-14T00:16:25;9.77;;;5.90;;
19679;SDS011;9989;48.962;9.182;2023-06-14T00:18:51;10.63;;;6.10;;
19679;SDS011;9989;48.962;9.182;2023-06-14T00:21:17;11.77;;;6.30;;
19679;SDS011;9989;48.962;9.182;2023-06-14T00:23:43;10.97;;;5.40;;
19679;SDS011;9989;48.962;9.182;2023-06-14T00:26:08;9.23;;;5.73;;
19679;SDS011;9989;48.962;9.182;2023-06-14T00:28:34;9.13;;;5.77;;
19679;SDS011;9989;48.962;9.182;2023-06-14T00:31:00;10.80;;;6.13;;
19679;SDS011;9989;48.962;9.182;2023-06-14T00:33:25;10.13;;;5.33;;
19679;SDS011;9989;48.962;9.182;2023-06-14T00:35:51;9.37;;;5.67;;
19679;SDS011;9989;48.962;9.182;2023-06-14T00:38:19;11.10;;;5.50;;
19679;SDS011;9989;48.962;9.182;2023-06-14T00:40:45;8.97;;;5.37;;
19679;SDS011;9989;48.962;9.182;2023-06-14T00:43:10;9.93;;;5.10;;
19679;SDS011;9989;48.962;9.182;2023-06-14T00:45:36;9.57;;;5.60;;
19679;SDS011;9989;48.962;9.182;2023-06-14T00:48:02;9.07;;;5.40;;
19679;SDS011;9989;48.962;9.182;2023-06-14T00:50:31;13.57;;;6.30;;
19679;SDS011;9989;48.962;9.182;2023-06-14T00:52:58;9.60;;;5.87;;
19679;SDS011;9989;48.962;9.182;2023-06-14T00:55:24;9.13;;;5.37;;
19679;SDS011;9989;48.962;9.182;2023-06-14T00:57:50;12.53;;;5.77;;
19679;SDS011;9989;48.962;9.182;2023-06-14T01:00:19;9.63;;;5.77;;
19679;SDS011;9989;48.962;9.182;2023-06-14T01:02:45;13.83;;;6.70;;
19679;SDS011;9989;48.962;9.182;2023-06-14T01:05:11;11.13;;;5.83;;
19679;SDS011;9989;48.962;9.182;2023-06-14T01:12:52;12.13;;;6.90;;
19679;SDS011;9989;48.962;9.182;2023-06-14T01:15:43;11.30;;;5.90;;
19679;SDS011;9989;48.962;9.182;2023-06-14T01:18:13;11.23;;;6.90;;
19679;SDS011;9989;48.962;9.182;2023-06-14T01:20:45;10.73;;;6.40;;
19679;SDS011;9989;48.962;9.182;2023-06-14T01:23:16;9.83;;;6.20;;
19679;SDS011;9989;48.962;9.182;2023-06-14T01:25:46;11.10;;;6.10;;
19679;SDS011;9989;48.962;9.182;2023-06-14T01:28:13;11.43;;;6.60;;
19679;SDS011;9989;48.962;9.182;2023-06-14T01:30:42;10.20;;;6.67;;
19679;SDS011;9989;48.962;9.182;2023-06-14T01:33:14;11.27;;;6.67;;
19679;SDS011;9989;48.962;9.182;2023-06-14T01:35:42;12.23;;;6.63;;
19679;SDS011;9989;48.962;9.182;2023-06-14T01:38:09;10.93;;;6.77;;
19679;SDS011;9989;48.962;9.182;2023-06-14T01:40:35;12.67;;;7.17;;
19679;SDS011;9989;48.962;9.182;2023-06-14T01:43:02;10.90;;;6.20;;
19679;SDS011;9989;48.962;9.182;2023-06-14T01:45:29;10.93;;;6.43;;
19679;SDS011;9989;48.962;9.182;2023-06-14T01:47:56;14.83;;;6.50;;
19679;SDS011;9989;48.962;9.182;2023-06-14T01:50:22;10.30;;;6.00;;
19679;SDS011;9989;48.962;9.182;2023-06-14T01:52:47;12.67;;;6.70;;
19679;SDS011;9989;48.962;9.182;2023-06-14T01:55:13;12.27;;;7.03;;
19679;SDS011;9989;48.962;9.182;2023-06-14T01:57:38;10.70;;;6.40;;
19679;SDS011;9989;48.962;9.182;2023-06-14T02:00:05;10.77;;;6.53;;
19679;SDS011;9989;48.962;9.182;2023-06-14T02:02:40;10.27;;;6.10;;
19679;SDS011;9989;48.962;9.182;2023-06-14T02:05:06;11.10;;;6.83;;
19679;SDS011;9989;48.962;9.182;2023-06-14T02:07:32;10.07;;;6.23;;
19679;SDS011;9989;48.962;9.182;2023-06-14T02:09:58;11.90;;;6.53;;
19679;SDS011;9989;48.962;9.182;2023-06-14T02:12:24;10.37;;;6.13;;
19679;SDS011;9989;48.962;9.182;2023-06-14T02:14:50;11.73;;;6.80;;
19679;SDS011;9989;48.962;9.182;2023-06-14T02:17:16;10.27;;;6.57;;
19679;SDS011;9989;48.962;9.182;2023-06-14T02:19:42;10.23;;;6.47;;
19679;SDS011;9989;48.962;9.182;2023-06-14T02:22:08;11.07;;;6.70;;
19679;SDS011;9989;48.962;9.182;2023-06-14T02:24:34;13.43;;;6.73;;
19679;SDS011;9989;48.962;9.182;2023-06-14T02:27:01;10.57;;;6.83;;
19679;SDS011;9989;48.962;9.182;2023-06-14T02:29:27;10.83;;;7.13;;
19679;SDS011;9989;48.962;9.182;2023-06-14T02:31:52;14.17;;;6.83;;
19679;SDS011;9989;48.962;9.182;2023-06-14T02:34:18;12.63;;;6.70;;
19679;SDS011;9989;48.962;9.182;2023-06-14T02:36:45;13.50;;;7.53;;
19679;SDS011;9989;48.962;9.182;2023-06-14T02:39:12;10.27;;;6.33;;
19679;SDS011;9989;48.962;9.182;2023-06-14T02:41:38;11.13;;;6.20;;
19679;SDS011;9989;48.962;9.182;2023-06-14T02:44:06;12.53;;;6.60;;
19679;SDS011;9989;48.962;9.182;2023-06-14T02:46:32;9.70;;;6.50;;
19679;SDS011;9989;48.962;9.182;2023-06-14T02:48:58;11.97;;;6.70;;
19679;SDS011;9989;48.962;9.182;2023-06-14T02:51:24;10.03;;;6.33;;
19679;SDS011;9989;48.962;9.182;2023-06-14T02:53:50;10.87;;;6.27;;
19679;SDS011;9989;48.962;9.182;2023-06-14T02:56:16;10.43;;;6.00;;
19679;SDS011;9989;48.962;9.182;2023-06-14T02:58:44;10.67;;;6.37;;
19679;SDS011;9989;48.962;9.182;2023-06-14T03:01:10;10.63;;;6.80;;
19679;SDS011;9989;48.962;9.182;2023-06-14T03:03:38;12.20;;;6.50;;
19679;SDS011;9989;48.962;9.182;2023-06-14T03:06:03;12.87;;;7.07;;
19679;SDS011;9989;48.962;9.182;2023-06-14T03:08:33;9.90;;;6.27;;
19679;SDS011;9989;48.962;9.182;2023-06-14T03:11:04;14.40;;;7.10;;
19679;SDS011;9989;48.962;9.182;2023-06-14T03:13:30;11.70;;;6.63;;
19679;SDS011;9989;48.962;9.182;2023-06-14T03:15:59;11.53;;;7.00;;
19679;SDS011;9989;48.962;9.182;2023-06-14T03:18:27;10.40;;;6.60;;
19679;SDS011;9989;48.962;9.182;2023-06-14T03:20:55;14.13;;;6.80;;
19679;SDS011;9989;48.962;9.182;2023-06-14T03:23:22;9.93;;;5.97;;
19679;SDS011;9989;48.962;9.182;2023-06-14T03:25:48;14.83;;;7.43;;
19679;SDS011;9989;48.962;9.182;2023-06-14T03:28:14;10.70;;;6.33;;
19679;SDS011;9989;48.962;9.182;2023-06-14T03:30:40;10.57;;;6.87;;
19679;SDS011;9989;48.962;9.182;2023-06-14T03:33:05;15.47;;;7.57;;
19679;SDS011;9989;48.962;9.182;2023-06-14T03:35:31;11.50;;;6.80;;
19679;SDS011;9989;48.962;9.182;2023-06-14T03:37:57;11.00;;;7.13;;
19679;SDS011;9989;48.962;9.182;2023-06-14T03:40:22;12.03;;;7.73;;
19679;SDS011;9989;48.962;9.182;2023-06-14T03:42:52;11.90;;;7.33;;
19679;SDS011;9989;48.962;9.182;2023-06-14T03:45:21;11.70;;;7.33;;
19679;SDS011;9989;48.962;9.182;2023-06-14T03:47:46;11.43;;;6.50;;
19679;SDS011;9989;48.962;9.182;2023-06-14T03:50:13;15.27;;;7.90;;
19679;SDS011;9989;48.962;9.182;2023-06-14T03:52:38;11.87;;;6.93;;
19679;SDS011;9989;48.962;9.182;2023-06-14T03:55:08;11.77;;;7.20;;
19679;SDS011;9989;48.962;9.182;2023-06-14T03:57:35;11.93;;;8.07;;
19679;SDS011;9989;48.962;9.182;2023-06-14T04:00:01;11.73;;;7.40;;
19679;SDS011;9989;48.962;9.182;2023-06-14T04:02:29;13.17;;;8.10;;
19679;SDS011;9989;48.962;9.182;2023-06-14T04:04:55;11.43;;;6.40;;
19679;SDS011;9989;48.962;9.182;2023-06-14T04:07:21;12.77;;;6.83;;
19679;SDS011;9989;48.962;9.182;2023-06-14T04:09:48;15.47;;;8.27;;
19679;SDS011;9989;48.962;9.182;2023-06-14T04:12:14;11.73;;;6.77;;
19679;SDS011;9989;48.962;9.182;2023-06-14T04:14:40;13.20;;;7.13;;
19679;SDS011;9989;48.962;9.182;2023-06-14T04:17:05;11.70;;;6.53;;
19679;SDS011;9989;48.962;9.182;2023-06-14T04:19:31;11.00;;;6.77;;
19679;SDS011;9989;48.962;9.182;2023-06-14T04:21:57;11.67;;;6.83;;
19679;SDS011;9989;48.962;9.182;2023-06-14T04:24:26;13.93;;;6.67;;
19679;SDS011;9989;48.962;9.182;2023-06-14T04:26:57;11.10;;;7.07;;
19679;SDS011;9989;48.962;9.182;2023-06-14T04:29:24;12.13;;;7.40;;
19679;SDS011;9989;48.962;9.182;2023-06-14T04:31:53;12.17;;;7.23;;
19679;SDS011;9989;48.962;9.182;2023-06-14T04:34:19;12.33;;;7.07;;
19679;SDS011;9989;48.962;9.182;2023-06-14T04:36:48;12.77;;;8.27;;
19679;SDS011;9989;48.962;9.182;2023-06-14T04:39:15;14.33;;;7.77;;
19679;SDS011;9989;48.962;9.182;2023-06-14T04:41:42;12.20;;;7.43;;
19679;SDS011;9989;48.962;9.182;2023-06-14T04:44:09;11.17;;;6.93;;
19679;SDS011;9989;48.962;9.182;2023-06-14T04:46:35;12.00;;;7.47;;
19679;SDS011;9989;48.962;9.182;2023-06-14T04:49:16;12.03;;;7.70;;
19679;SDS011;9989;48.962;9.182;2023-06-14T04:51:43;13.53;;;7.63;;
19679;SDS011;9989;48.962;9.182;2023-06-14T04:54:10;12.50;;;7.63;;
19679;SDS011;9989;48.962;9.182;2023-06-14T04:56:38;13.77;;;7.83;;
19679;SDS011;9989;48.962;9.182;2023-06-14T04:59:04;13.03;;;7.40;;
19679;SDS011;9989;48.962;9.182;2023-06-14T05:01:30;10.47;;;6.97;;
19679;SDS011;9989;48.962;9.182;2023-06-14T05:03:59;13.57;;;8.43;;
19679;SDS011;9989;48.962;9.182;2023-06-14T05:06:25;12.83;;;8.00;;
19679;SDS011;9989;48.962;9.182;2023-06-14T05:08:52;12.03;;;7.50;;
19679;SDS011;9989;48.962;9.182;2023-06-14T05:11:18;12.37;;;7.43;;
19679;SDS011;9989;48.962;9.182;2023-06-14T05:13:44;11.13;;;7.00;;
19679;SDS011;9989;48.962;9.182;2023-06-14T05:16:10;11.17;;;7.17;;
19679;SDS011;9989;48.962;9.182;2023-06-14T05:18:36;11.90;;;7.27;;
19679;SDS011;9989;48.962;9.182;2023-06-14T05:21:03;11.23;;;7.07;;
19679;SDS011;9989;48.962;9.182;2023-06-14T05:23:30;15.87;;;8.47;;
19679;SDS011;9989;48.962;9.182;2023-06-14T05:25:56;11.63;;;7.83;;
19679;SDS011;9989;48.962;9.182;2023-06-14T05:28:22;14.77;;;7.57;;
19679;SDS011;9989;48.962;9.182;2023-06-14T05:30:47;13.37;;;8.20;;
19679;SDS011;9989;48.962;9.182;2023-06-14T05:33:13;11.70;;;6.87;;
19679;SDS011;9989;48.962;9.182;2023-06-14T05:35:39;11.90;;;7.57;;
19679;SDS011;9989;48.962;9.182;2023-06-14T05:38:04;11.47;;;7.23;;
19679;SDS011;9989;48.962;9.182;2023-06-14T05:40:30;11.60;;;6.87;;
19679;SDS011;9989;48.962;9.182;2023-06-14T05:42:56;13.33;;;9.07;;
19679;SDS011;9989;48.962;9.182;2023-06-14T05:45:22;12.37;;;7.00;;
19679;SDS011;9989;48.962;9.182;2023-06-14T05:47:47;12.20;;;7.37;;
19679;SDS011;9989;48.962;9.182;2023-06-14T05:50:13;14.03;;;7.63;;
19679;SDS011;9989;48.962;9.182;2023-06-14T05:52:39;17.47;;;7.00;;
19679;SDS011;9989;48.962;9.182;2023-06-14T05:55:04;11.73;;;8.10;;
19679;SDS011;9989;48.962;9.182;2023-06-14T05:57:31;13.07;;;7.83;;
19679;SDS011;9989;48.962;9.182;2023-06-14T05:59:56;10.37;;;6.53;;
19679;SDS011;9989;48.962;9.182;2023-06-14T06:02:25;13.53;;;8.13;;
19679;SDS011;9989;48.962;9.182;2023-06-14T06:04:50;11.70;;;8.00;;
19679;SDS011;9989;48.962;9.182;2023-06-14T06:07:16;11.40;;;7.33;;
19679;SDS011;9989;48.962;9.182;2023-06-14T06:09:42;11.27;;;7.70;;
19679;SDS011;9989;48.962;9.182;2023-06-14T06:12:08;10.83;;;7.37;;
19679;SDS011;9989;48.962;9.182;2023-06-14T06:14:34;10.30;;;7.27;;
19679;SDS011;9989;48.962;9.182;2023-06-14T06:16:59;13.30;;;7.73;;
19679;SDS011;9989;48.962;9.182;2023-06-14T06:19:25;11.47;;;6.80;;
19679;SDS011;9989;48.962;9.182;2023-06-14T06:21:51;15.23;;;7.97;;
19679;SDS011;9989;48.962;9.182;2023-06-14T06:24:16;11.77;;;7.53;;
19679;SDS011;9989;48.962;9.182;2023-06-14T06:26:42;11.63;;;6.97;;
19679;SDS011;9989;48.962;9.182;2023-06-14T06:29:07;12.73;;;7.43;;
19679;SDS011;9989;48.962;9.182;2023-06-14T06:31:33;14.93;;;7.23;;
19679;SDS011;9989;48.962;9.182;2023-06-14T06:33:59;13.83;;;7.77;;
19679;SDS011;9989;48.962;9.182;2023-06-14T06:36:25;11.67;;;7.37;;
19679;SDS011;9989;48.962;9.182;2023-06-14T06:38:50;11.47;;;7.20;;
19679;SDS011;9989;48.962;9.182;2023-06-14T06:41:16;13.17;;;7.10;;
19679;SDS011;9989;48.962;9.182;2023-06-14T06:43:42;12.83;;;7.63;;
19679;SDS011;9989;48.962;9.182;2023-06-14T06:46:07;12.03;;;7.10;;
19679;SDS011;9989;48.962;9.182;2023-06-14T06:48:33;11.43;;;7.00;;
19679;SDS011;9989;48.962;9.182;2023-06-14T06:50:59;11.50;;;6.93;;
19679;SDS011;9989;48.962;9.182;2023-06-14T06:53:24;15.07;;;8.20;;
19679;SDS011;9989;48.962;9.182;2023-06-14T06:55:50;11.80;;;7.97;;
19679;SDS011;9989;48.962;9.182;2023-06-14T06:58:16;17.37;;;7.93;;
19679;SDS011;9989;48.962;9.182;2023-06-14T07:00:44;10.87;;;7.07;;
19679;SDS011;9989;48.962;9.182;2023-06-14T07:03:11;13.17;;;7.40;;
19679;SDS011;9989;48.962;9.182;2023-06-14T07:05:37;10.40;;;6.70;;
19679;SDS011;9989;48.962;9.182;2023-06-14T07:08:02;11.70;;;7.27;;
19679;SDS011;9989;48.962;9.182;2023-06-14T07:10:28;10.43;;;7.00;;
19679;SDS011;9989;48.962;9.182;2023-06-14T07:12:54;10.27;;;6.83;;
19679;SDS011;9989;48.962;9.182;2023-06-14T07:15:20;11.50;;;7.00;;
19679;SDS011;9989;48.962;9.182;2023-06-14T07:17:46;12.40;;;7.47;;
19679;SDS011;9989;48.962;9.182;2023-06-14T07:20:11;13.00;;;6.87;;
19679;SDS011;9989;48.962;9.182;2023-06-14T07:22:41;13.83;;;7.57;;
19679;SDS011;9989;48.962;9.182;2023-06-14T07:25:08;10.60;;;6.93;;
19679;SDS011;9989;48.962;9.182;2023-06-14T07:27:37;12.60;;;7.47;;
19679;SDS011;9989;48.962;9.182;2023-06-14T07:30:03;10.80;;;7.43;;
19679;SDS011;9989;48.962;9.182;2023-06-14T07:32:29;11.30;;;7.30;;
19679;SDS011;9989;48.962;9.182;2023-06-14T07:34:54;16.30;;;7.43;;
19679;SDS011;9989;48.962;9.182;2023-06-14T07:37:20;11.20;;;7.40;;
19679;SDS011;9989;48.962;9.182;2023-06-14T07:39:46;12.23;;;7.57;;
19679;SDS011;9989;48.962;9.182;2023-06-14T07:42:11;12.40;;;7.77;;
19679;SDS011;9989;48.962;9.182;2023-06-14T07:44:37;10.80;;;7.47;;
19679;SDS011;9989;48.962;9.182;2023-06-14T07:47:02;11.67;;;7.20;;
19679;SDS011;9989;48.962;9.182;2023-06-14T07:49:28;10.17;;;7.10;;
19679;SDS011;9989;48.962;9.182;2023-06-14T07:51:54;16.40;;;8.10;;
19679;SDS011;9989;48.962;9.182;2023-06-14T07:54:20;12.60;;;7.30;;
19679;SDS011;9989;48.962;9.182;2023-06-14T07:56:50;11.77;;;7.10;;
19679;SDS011;9989;48.962;9.182;2023-06-14T07:59:15;12.60;;;6.67;;
19679;SDS011;9989;48.962;9.182;2023-06-14T08:01:41;11.73;;;7.17;;
19679;SDS011;9989;48.962;9.182;2023-06-14T08:04:12;10.20;;;6.50;;
19679;SDS011;9989;48.962;9.182;2023-06-14T08:06:38;10.20;;;6.63;;
19679;SDS011;9989;48.962;9.182;2023-06-14T08:09:04;11.13;;;6.53;;
19679;SDS011;9989;48.962;9.182;2023-06-14T08:11:30;10.73;;;7.07;;
19679;SDS011;9989;48.962;9.182;2023-06-14T08:13:56;9.47;;;6.50;;
19679;SDS011;9989;48.962;9.182;2023-06-14T08:16:22;9.40;;;5.97;;
19679;SDS011;9989;48.962;9.182;2023-06-14T08:18:48;14.80;;;7.03;;
19679;SDS011;9989;48.962;9.182;2023-06-14T08:21:14;9.40;;;6.50;;
19679;SDS011;9989;48.962;9.182;2023-06-14T08:23:45;12.10;;;7.33;;
19679;SDS011;9989;48.962;9.182;2023-06-14T08:26:11;11.57;;;6.70;;
19679;SDS011;9989;48.962;9.182;2023-06-14T08:28:37;9.60;;;6.47;;
19679;SDS011;9989;48.962;9.182;2023-06-14T08:31:02;11.60;;;7.07;;
19679;SDS011;9989;48.962;9.182;2023-06-14T08:33:28;13.07;;;6.90;;
19679;SDS011;9989;48.962;9.182;2023-06-14T08:35:54;10.53;;;6.40;;
19679;SDS011;9989;48.962;9.182;2023-06-14T08:38:19;11.50;;;7.40;;
19679;SDS011;9989;48.962;9.182;2023-06-14T08:40:47;12.00;;;6.20;;
19679;SDS011;9989;48.962;9.182;2023-06-14T08:43:17;13.53;;;6.60;;
19679;SDS011;9989;48.962;9.182;2023-06-14T08:45:46;9.83;;;6.13;;
19679;SDS011;9989;48.962;9.182;2023-06-14T08:48:14;9.50;;;6.20;;
19679;SDS011;9989;48.962;9.182;2023-06-14T08:50:42;14.27;;;6.20;;
19679;SDS011;9989;48.962;9.182;2023-06-14T08:53:11;12.03;;;7.20;;
19679;SDS011;9989;48.962;9.182;2023-06-14T08:55:44;11.23;;;6.10;;
19679;SDS011;9989;48.962;9.182;2023-06-14T08:58:10;10.13;;;6.33;;
19679;SDS011;9989;48.962;9.182;2023-06-14T09:00:39;11.40;;;6.73;;
19679;SDS011;9989;48.962;9.182;2023-06-14T09:03:07;9.93;;;6.57;;
19679;SDS011;9989;48.962;9.182;2023-06-14T09:05:38;13.97;;;6.00;;
19679;SDS011;9989;48.962;9.182;2023-06-14T09:08:04;12.33;;;6.50;;
19679;SDS011;9989;48.962;9.182;2023-06-14T09:10:30;9.40;;;6.20;;
19679;SDS011;9989;48.962;9.182;2023-06-14T09:13:00;11.50;;;7.17;;
19679;SDS011;9989;48.962;9.182;2023-06-14T09:15:26;12.23;;;6.17;;
19679;SDS011;9989;48.962;9.182;2023-06-14T09:17:52;10.43;;;6.53;;
19679;SDS011;9989;48.962;9.182;2023-06-14T09:20:18;10.13;;;6.63;;
19679;SDS011;9989;48.962;9.182;2023-06-14T09:22:44;11.17;;;6.73;;
19679;SDS011;9989;48.962;9.182;2023-06-14T09:25:10;12.57;;;6.57;;
19679;SDS011;9989;48.962;9.182;2023-06-14T09:27:40;9.10;;;5.60;;
19679;SDS011;9989;48.962;9.182;2023-06-14T09:30:08;9.83;;;6.30;;
19679;SDS011;9989;48.962;9.182;2023-06-14T09:32:38;11.57;;;6.73;;
19679;SDS011;9989;48.962;9.182;2023-06-14T09:35:08;10.07;;;6.27;;
19679;SDS011;9989;48.962;9.182;2023-06-14T09:37:34;11.67;;;6.40;;
19679;SDS011;9989;48.962;9.182;2023-06-14T09:40:02;11.63;;;6.17;;
19679;SDS011;9989;48.962;9.182;2023-06-14T09:42:29;10.17;;;6.17;;
19679;SDS011;9989;48.962;9.182;2023-06-14T09:44:55;10.90;;;5.80;;
19679;SDS011;9989;48.962;9.182;2023-06-14T09:47:21;13.30;;;5.97;;
19679;SDS011;9989;48.962;9.182;2023-06-14T09:49:50;10.23;;;5.80;;
19679;SDS011;9989;48.962;9.182;2023-06-14T09:52:20;11.77;;;5.80;;
19679;SDS011;9989;48.962;9.182;2023-06-14T09:54:48;8.93;;;5.20;;
19679;SDS011;9989;48.962;9.182;2023-06-14T09:57:15;10.33;;;5.67;;
19679;SDS011;9989;48.962;9.182;2023-06-14T09:59:45;9.17;;;4.80;;
19679;SDS011;9989;48.962;9.182;2023-06-14T10:02:22;8.17;;;4.80;;
19679;SDS011;9989;48.962;9.182;2023-06-14T10:07:40;8.37;;;4.30;;
19679;SDS011;9989;48.962;9.182;2023-06-14T10:10:08;8.20;;;4.70;;
19679;SDS011;9989;48.962;9.182;2023-06-14T10:12:34;9.23;;;5.40;;
19679;SDS011;9989;48.962;9.182;2023-06-14T10:15:00;11.00;;;5.17;;
19679;SDS011;9989;48.962;9.182;2023-06-14T10:23:13;10.03;;;4.90;;
19679;SDS011;9989;48.962;9.182;2023-06-14T10:25:44;17.53;;;5.80;;
19679;SDS011;9989;48.962;9.182;2023-06-14T10:33:49;9.33;;;5.40;;
19679;SDS011;9989;48.962;9.182;2023-06-14T10:36:27;9.13;;;4.73;;
19679;SDS011;9989;48.962;9.182;2023-06-14T10:41:40;9.10;;;4.80;;
19679;SDS011;9989;48.962;9.182;2023-06-14T10:46:48;11.73;;;5.10;;
19679;SDS011;9989;48.962;9.182;2023-06-14T10:49:36;10.93;;;5.57;;
19679;SDS011;9989;48.962;9.182;2023-06-14T10:52:07;7.97;;;4.47;;
19679;SDS011;9989;48.962;9.182;2023-06-14T10:54:36;9.33;;;5.57;;
19679;SDS011;9989;48.962;9.182;2023-06-14T10:57:03;11.13;;;5.00;;
19679;SDS011;9989;48.962;9.182;2023-06-14T10:59:32;12.00;;;5.33;;
19679;SDS011;9989;48.962;9.182;2023-06-14T11:02:20;9.87;;;5.07;;
19679;SDS011;9989;48.962;9.182;2023-06-14T11:05:16;9.27;;;5.63;;
19679;SDS011;9989;48.962;9.182;2023-06-14T11:10:44;11.07;;;6.13;;
19679;SDS011;9989;48.962;9.182;2023-06-14T11:13:12;9.70;;;4.97;;
19679;SDS011;9989;48.962;9.182;2023-06-14T11:15:43;8.60;;;4.80;;
19679;SDS011;9989;48.962;9.182;2023-06-14T11:18:11;10.70;;;5.80;;
19679;SDS011;9989;48.962;9.182;2023-06-14T11:20:39;9.47;;;5.40;;
19679;SDS011;9989;48.962;9.182;2023-06-14T11:23:05;8.53;;;4.80;;
19679;SDS011;9989;48.962;9.182;2023-06-14T11:25:31;8.37;;;5.03;;
19679;SDS011;9989;48.962;9.182;2023-06-14T11:27:57;9.47;;;5.00;;
19679;SDS011;9989;48.962;9.182;2023-06-14T11:30:24;8.70;;;5.13;;
19679;SDS011;9989;48.962;9.182;2023-06-14T11:32:51;10.03;;;4.77;;
19679;SDS011;9989;48.962;9.182;2023-06-14T11:35:17;9.67;;;5.00;;
19679;SDS011;9989;48.962;9.182;2023-06-14T11:37:44;8.83;;;5.47;;
19679;SDS011;9989;48.962;9.182;2023-06-14T11:40:10;7.90;;;4.77;;
19679;SDS011;9989;48.962;9.182;2023-06-14T11:42:37;8.77;;;4.73;;
19679;SDS011;9989;48.962;9.182;2023-06-14T11:45:06;8.40;;;5.10;;
19679;SDS011;9989;48.962;9.182;2023-06-14T11:47:36;8.57;;;5.13;;
19679;SDS011;9989;48.962;9.182;2023-06-14T11:50:04;10.50;;;4.73;;
19679;SDS011;9989;48.962;9.182;2023-06-14T11:52:33;11.37;;;6.00;;
19679;SDS011;9989;48.962;9.182;2023-06-14T11:54:59;9.07;;;4.77;;
19679;SDS011;9989;48.962;9.182;2023-06-14T11:57:26;10.03;;;5.03;;
19679;SDS011;9989;48.962;9.182;2023-06-14T11:59:51;10.10;;;5.43;;
19679;SDS011;9989;48.962;9.182;2023-06-14T12:02:21;9.20;;;5.80;;
19679;SDS011;9989;48.962;9.182;2023-06-14T12:04:47;9.93;;;5.60;;
19679;SDS011;9989;48.962;9.182;2023-06-14T12:07:16;10.77;;;5.03;;
19679;SDS011;9989;48.962;9.182;2023-06-14T12:12:22;9.10;;;4.70;;
19679;SDS011;9989;48.962;9.182;2023-06-14T12:14:51;8.80;;;5.37;;
19679;SDS011;9989;48.962;9.182;2023-06-14T12:17:18;11.23;;;5.50;;
19679;SDS011;9989;48.962;9.182;2023-06-14T12:19:45;10.17;;;6.10;;
19679;SDS011;9989;48.962;9.182;2023-06-14T12:22:14;11.70;;;5.47;;
19679;SDS011;9989;48.962;9.182;2023-06-14T12:24:44;9.70;;;5.33;;
19679;SDS011;9989;48.962;9.182;2023-06-14T12:27:10;10.70;;;5.17;;
19679;SDS011;9989;48.962;9.182;2023-06-14T12:29:41;9.33;;;5.63;;
19679;SDS011;9989;48.962;9.182;2023-06-14T12:32:10;11.40;;;5.40;;
19679;SDS011;9989;48.962;9.182;2023-06-14T12:34:36;9.03;;;5.50;;
19679;SDS011;9989;48.962;9.182;2023-06-14T12:37:02;9.43;;;5.67;;
19679;SDS011;9989;48.962;9.182;2023-06-14T12:39:31;11.33;;;5.30;;
19679;SDS011;9989;48.962;9.182;2023-06-14T12:41:57;8.67;;;5.30;;
19679;SDS011;9989;48.962;9.182;2023-06-14T12:44:24;8.17;;;4.70;;
19679;SDS011;9989;48.962;9.182;2023-06-14T12:46:50;12.70;;;5.67;;
19679;SDS011;9989;48.962;9.182;2023-06-14T12:49:18;10.17;;;5.37;;
19679;SDS011;9989;48.962;9.182;2023-06-14T12:51:45;9.73;;;5.47;;
19679;SDS011;9989;48.962;9.182;2023-06-14T12:54:10;15.90;;;6.20;;
19679;SDS011;9989;48.962;9.182;2023-06-14T12:56:37;10.83;;;6.00;;
19679;SDS011;9989;48.962;9.182;2023-06-14T12:59:02;17.93;;;6.20;;
19679;SDS011;9989;48.962;9.182;2023-06-14T13:01:28;11.07;;;6.13;;
19679;SDS011;9989;48.962;9.182;2023-06-14T13:03:54;10.10;;;6.10;;
19679;SDS011;9989;48.962;9.182;2023-06-14T13:06:22;11.93;;;5.73;;
19679;SDS011;9989;48.962;9.182;2023-06-14T13:08:49;10.10;;;5.90;;
19679;SDS011;9989;48.962;9.182;2023-06-14T13:11:15;10.30;;;5.70;;
19679;SDS011;9989;48.962;9.182;2023-06-14T13:13:41;8.40;;;5.17;;
19679;SDS011;9989;48.962;9.182;2023-06-14T13:16:06;10.17;;;5.37;;
19679;SDS011;9989;48.962;9.182;2023-06-14T13:18:32;8.63;;;5.23;;
19679;SDS011;9989;48.962;9.182;2023-06-14T13:20:58;9.17;;;5.67;;
19679;SDS011;9989;48.962;9.182;2023-06-14T13:23:27;9.80;;;5.50;;
19679;SDS011;9989;48.962;9.182;2023-06-14T13:25:52;9.03;;;5.50;;
19679;SDS011;9989;48.962;9.182;2023-06-14T13:28:18;11.07;;;5.40;;
19679;SDS011;9989;48.962;9.182;2023-06-14T13:30:45;9.80;;;5.60;;
19679;SDS011;9989;48.962;9.182;2023-06-14T13:33:14;11.23;;;6.00;;
19679;SDS011;9989;48.962;9.182;2023-06-14T13:35:40;8.80;;;5.63;;
19679;SDS011;9989;48.962;9.182;2023-06-14T13:38:05;10.00;;;5.60;;
19679;SDS011;9989;48.962;9.182;2023-06-14T13:40:31;9.93;;;6.60;;
19679;SDS011;9989;48.962;9.182;2023-06-14T13:42:57;15.23;;;5.80;;
19679;SDS011;9989;48.962;9.182;2023-06-14T13:45:22;9.77;;;5.47;;
19679;SDS011;9989;48.962;9.182;2023-06-14T13:47:48;9.63;;;5.80;;
19679;SDS011;9989;48.962;9.182;2023-06-14T13:50:14;11.63;;;6.60;;
19679;SDS011;9989;48.962;9.182;2023-06-14T13:52:43;9.10;;;5.70;;
19679;SDS011;9989;48.962;9.182;2023-06-14T13:55:09;9.30;;;5.73;;
19679;SDS011;9989;48.962;9.182;2023-06-14T13:57:34;9.83;;;5.47;;
19679;SDS011;9989;48.962;9.182;2023-06-14T14:00:00;10.17;;;5.40;;
19679;SDS011;9989;48.962;9.182;2023-06-14T14:02:27;8.20;;;5.27;;
19679;SDS011;9989;48.962;9.182;2023-06-14T14:04:54;9.40;;;6.10;;
19679;SDS011;9989;48.962;9.182;2023-06-14T14:07:20;9.73;;;6.10;;
19679;SDS011;9989;48.962;9.182;2023-06-14T14:09:47;8.87;;;6.00;;
19679;SDS011;9989;48.962;9.182;2023-06-14T14:12:13;8.60;;;5.77;;
19679;SDS011;9989;48.962;9.182;2023-06-14T14:14:39;7.97;;;4.90;;
19679;SDS011;9989;48.962;9.182;2023-06-14T14:17:05;7.77;;;4.77;;
19679;SDS011;9989;48.962;9.182;2023-06-14T14:19:31;9.70;;;5.53;;
19679;SDS011;9989;48.962;9.182;2023-06-14T14:21:57;9.80;;;5.40;;
19679;SDS011;9989;48.962;9.182;2023-06-14T14:24:23;8.80;;;5.30;;
19679;SDS011;9989;48.962;9.182;2023-06-14T14:26:49;9.10;;;5.77;;
19679;SDS011;9989;48.962;9.182;2023-06-14T14:29:15;9.60;;;5.57;;
19679;SDS011;9989;48.962;9.182;2023-06-14T14:31:42;9.70;;;5.27;;
19679;SDS011;9989;48.962;9.182;2023-06-14T14:34:07;13.70;;;5.80;;
19679;SDS011;9989;48.962;9.182;2023-06-14T14:36:33;9.43;;;5.57;;
19679;SDS011;9989;48.962;9.182;2023-06-14T14:39:02;10.97;;;5.20;;
19679;SDS011;9989;48.962;9.182;2023-06-14T14:41:32;8.80;;;5.43;;
19679;SDS011;9989;48.962;9.182;2023-06-14T14:43:57;16.83;;;5.93;;
19679;SDS011;9989;48.962;9.182;2023-06-14T14:46:24;9.00;;;4.90;;
19679;SDS011;9989;48.962;9.182;2023-06-14T14:48:50;8.10;;;4.70;;
19679;SDS011;9989;48.962;9.182;2023-06-14T14:51:15;11.70;;;5.30;;
19679;SDS011;9989;48.962;9.182;2023-06-14T14:53:41;8.00;;;5.13;;
19679;SDS011;9989;48.962;9.182;2023-06-14T14:56:06;12.93;;;5.77;;
19679;SDS011;9989;48.962;9.182;2023-06-14T14:58:32;8.63;;;5.10;;
19679;SDS011;9989;48.962;9.182;2023-06-14T15:00:58;9.87;;;5.50;;
19679;SDS011;9989;48.962;9.182;2023-06-14T15:03:23;8.87;;;4.90;;
19679;SDS011;9989;48.962;9.182;2023-06-14T15:05:49;9.60;;;5.60;;
19679;SDS011;9989;48.962;9.182;2023-06-14T15:08:15;9.87;;;6.07;;
19679;SDS011;9989;48.962;9.182;2023-06-14T15:10:40;11.93;;;5.50;;
19679;SDS011;9989;48.962;9.182;2023-06-14T15:13:07;9.70;;;5.40;;
19679;SDS011;9989;48.962;9.182;2023-06-14T15:15:33;8.80;;;5.27;;
19679;SDS011;9989;48.962;9.182;2023-06-14T15:17:59;8.37;;;5.10;;
19679;SDS011;9989;48.962;9.182;2023-06-14T15:20:25;8.43;;;4.93;;
19679;SDS011;9989;48.962;9.182;2023-06-14T15:22:51;9.73;;;5.17;;